createdAt,value
2018-12-31T00:02:18.638Z,6.40
2018-12-31T00:04:49.561Z,6.39
2018-12-31T00:07:20.444Z,6.41
2018-12-31T00:09:51.454Z,6.38
2018-12-31T00:12:22.664Z,6.46
2018-12-31T00:14:53.864Z,6.48
2018-12-31T00:17:24.753Z,6.43
2018-12-31T00:19:56.271Z,6.44
2018-12-31T00:22:27.197Z,6.44
2018-12-31T00:24:58.158Z,6.40
2018-12-31T00:27:29.077Z,6.47
2018-12-31T00:29:59.962Z,6.50
2018-12-31T00:32:31.267Z,6.51
2018-12-31T00:35:02.175Z,6.54
2018-12-31T00:37:33.122Z,6.56
2018-12-31T00:40:04.042Z,6.61
2018-12-31T00:42:34.917Z,6.64
2018-12-31T00:45:05.969Z,6.61
2018-12-31T00:47:37.496Z,6.70
2018-12-31T00:50:08.543Z,6.75
2018-12-31T00:52:39.774Z,6.76
2018-12-31T00:55:10.653Z,6.71
2018-12-31T00:57:41.611Z,6.74
2018-12-31T01:00:12.502Z,6.73
2018-12-31T01:02:43.467Z,6.74
2018-12-31T01:05:14.347Z,6.71
2018-12-31T01:07:45.507Z,6.69
2018-12-31T01:10:16.804Z,6.65
2018-12-31T01:12:47.717Z,6.63
2018-12-31T01:15:18.957Z,6.63
2018-12-31T01:17:49.915Z,6.58
2018-12-31T01:20:22.446Z,6.61
2018-12-31T01:22:53.401Z,6.59
2018-12-31T01:25:24.568Z,6.50
2018-12-31T01:27:55.479Z,6.54
2018-12-31T01:30:26.370Z,6.51
2018-12-31T01:32:57.305Z,6.57
2018-12-31T01:35:28.204Z,6.49
2018-12-31T01:37:59.473Z,6.57
2018-12-31T01:40:30.404Z,6.51
2018-12-31T01:43:01.628Z,6.54
2018-12-31T01:45:32.575Z,6.49
2018-12-31T01:48:03.756Z,6.54
2018-12-31T01:50:34.624Z,6.49
2018-12-31T01:53:05.533Z,6.48
2018-12-31T01:55:36.440Z,6.45
2018-12-31T01:58:07.440Z,6.48
2018-12-31T02:00:38.309Z,6.46
2018-12-31T02:03:09.202Z,6.44
2018-12-31T02:05:40.124Z,6.44
2018-12-31T02:08:11.040Z,6.46
2018-12-31T02:10:41.976Z,6.50
2018-12-31T02:13:12.882Z,6.54
2018-12-31T02:15:44.102Z,6.55
2018-12-31T02:18:15.028Z,6.57
2018-12-31T02:20:46.137Z,6.60
2018-12-31T02:23:17.088Z,6.52
2018-12-31T02:25:48.010Z,6.50
2018-12-31T02:28:18.893Z,6.47
2018-12-31T02:30:49.852Z,6.52
2018-12-31T02:33:20.809Z,6.54
2018-12-31T02:35:53.079Z,6.54
2018-12-31T02:38:23.980Z,6.56
2018-12-31T02:40:55.447Z,6.61
2018-12-31T02:43:26.381Z,6.72
2018-12-31T02:45:57.268Z,6.67
2018-12-31T02:48:28.196Z,6.60
2018-12-31T02:50:59.146Z,6.57
2018-12-31T02:53:30.095Z,6.58
2018-12-31T02:56:01.005Z,6.53
2018-12-31T02:58:32.503Z,6.57
2018-12-31T03:01:03.557Z,6.54
2018-12-31T03:03:34.500Z,6.54
2018-12-31T03:06:05.690Z,6.55
2018-12-31T03:08:36.629Z,6.53
2018-12-31T03:11:07.823Z,6.60
2018-12-31T03:13:38.870Z,6.61
2018-12-31T03:16:09.742Z,6.71
2018-12-31T03:18:40.864Z,6.70
2018-12-31T03:21:11.844Z,6.73
2018-12-31T03:23:43.060Z,6.77
2018-12-31T03:26:13.988Z,6.71
2018-12-31T03:28:44.881Z,6.71
2018-12-31T03:31:15.812Z,6.65
2018-12-31T03:33:46.779Z,6.60
2018-12-31T03:36:17.668Z,6.61
2018-12-31T03:38:48.607Z,6.63
2018-12-31T03:41:19.501Z,6.60
2018-12-31T03:43:50.750Z,6.63
2018-12-31T03:46:21.723Z,6.66
2018-12-31T03:48:52.967Z,6.75
2018-12-31T03:51:23.937Z,6.68
2018-12-31T03:53:54.818Z,6.68
2018-12-31T03:56:26.043Z,6.67
2018-12-31T03:58:57.229Z,6.64
2018-12-31T04:01:28.156Z,6.70
2018-12-31T04:03:59.360Z,6.70
2018-12-31T04:06:30.319Z,6.71
2018-12-31T04:09:01.533Z,6.73
2018-12-31T04:11:32.437Z,6.70
2018-12-31T04:14:03.388Z,6.70
2018-12-31T04:16:34.299Z,6.69
2018-12-31T04:19:05.185Z,6.71
2018-12-31T04:21:36.123Z,6.78
2018-12-31T04:24:07.023Z,6.81
2018-12-31T04:26:37.968Z,6.77
2018-12-31T04:29:09.128Z,6.87
2018-12-31T04:31:40.004Z,6.93
2018-12-31T04:34:10.947Z,6.90
2018-12-31T04:36:41.834Z,6.88
2018-12-31T04:39:12.732Z,6.88
2018-12-31T04:41:43.640Z,6.89
2018-12-31T04:44:14.558Z,6.86
2018-12-31T04:46:45.552Z,6.82
2018-12-31T04:49:16.726Z,6.81
2018-12-31T04:51:47.611Z,6.79
2018-12-31T04:54:18.540Z,6.78
2018-12-31T04:56:49.876Z,6.85
2018-12-31T04:59:20.855Z,6.80
2018-12-31T05:01:51.770Z,6.84
2018-12-31T05:04:22.731Z,6.86
2018-12-31T05:06:53.723Z,6.83
2018-12-31T05:09:24.600Z,6.85
2018-12-31T05:11:55.519Z,6.78
2018-12-31T05:14:26.396Z,6.79
2018-12-31T05:16:57.278Z,6.82
2018-12-31T05:19:28.258Z,6.82
2018-12-31T05:21:59.435Z,6.80
2018-12-31T05:24:30.384Z,6.78
2018-12-31T05:27:01.263Z,6.78
2018-12-31T05:29:32.222Z,6.79
2018-12-31T05:32:03.144Z,6.82
2018-12-31T05:34:34.028Z,6.81
2018-12-31T05:37:04.957Z,6.84
2018-12-31T05:39:35.836Z,6.83
2018-12-31T05:42:06.746Z,6.85
2018-12-31T05:44:37.645Z,6.86
2018-12-31T05:47:08.545Z,6.87
2018-12-31T05:49:39.792Z,6.93
2018-12-31T05:52:10.736Z,6.93
2018-12-31T05:54:41.647Z,6.91
2018-12-31T05:57:12.871Z,6.90
2018-12-31T05:59:43.768Z,6.85
2018-12-31T06:02:14.702Z,6.86
2018-12-31T06:04:45.609Z,6.85
2018-12-31T06:07:16.513Z,6.83
2018-12-31T06:09:47.509Z,6.77
2018-12-31T06:12:18.712Z,6.77
2018-12-31T06:14:49.972Z,6.78
2018-12-31T06:17:20.889Z,6.78
2018-12-31T06:19:51.766Z,6.82
2018-12-31T06:22:22.678Z,6.78
2018-12-31T06:24:53.630Z,6.79
2018-12-31T06:27:24.583Z,6.77
2018-12-31T06:29:55.464Z,6.82
2018-12-31T06:32:26.337Z,6.80
2018-12-31T06:34:57.266Z,6.79
2018-12-31T06:37:28.152Z,6.79
2018-12-31T06:39:59.054Z,6.82
2018-12-31T06:42:29.994Z,6.86
2018-12-31T06:45:00.901Z,6.89
2018-12-31T06:47:31.865Z,6.89
2018-12-31T06:50:02.763Z,6.94
2018-12-31T06:52:33.653Z,6.89
2018-12-31T06:55:05.871Z,6.87
2018-12-31T06:57:36.841Z,6.84
2018-12-31T07:00:08.132Z,6.82
2018-12-31T07:02:39.130Z,6.81
2018-12-31T07:05:10.043Z,6.81
2018-12-31T07:07:41.271Z,6.82
2018-12-31T07:10:12.209Z,6.83
2018-12-31T07:12:43.135Z,6.85
2018-12-31T07:15:14.011Z,6.87
2018-12-31T07:17:44.949Z,6.84
2018-12-31T07:20:15.935Z,6.87
2018-12-31T07:22:46.903Z,6.88
2018-12-31T07:25:17.886Z,6.89
2018-12-31T07:27:48.800Z,6.88
2018-12-31T07:30:20.057Z,6.88
2018-12-31T07:32:51.273Z,6.90
2018-12-31T07:35:22.151Z,6.89
2018-12-31T07:37:53.052Z,6.89
2018-12-31T07:40:23.984Z,6.90
2018-12-31T07:42:54.870Z,6.88
2018-12-31T07:45:25.824Z,6.90
2018-12-31T07:47:56.779Z,6.91
2018-12-31T07:50:28.276Z,6.93
2018-12-31T07:52:59.611Z,6.93
2018-12-31T07:55:30.482Z,6.97
2018-12-31T07:58:01.453Z,6.97
2018-12-31T08:00:32.409Z,7.01
2018-12-31T08:03:03.287Z,6.96
2018-12-31T08:05:34.158Z,6.98
2018-12-31T08:08:05.139Z,6.96
2018-12-31T08:10:36.429Z,6.97
2018-12-31T08:13:07.357Z,7.01
2018-12-31T08:15:38.275Z,7.00
2018-12-31T08:18:09.164Z,6.99
2018-12-31T08:20:40.074Z,7.02
2018-12-31T08:23:11.292Z,7.03
2018-12-31T08:25:42.256Z,7.06
2018-12-31T08:28:13.184Z,7.08
2018-12-31T08:30:44.141Z,7.13
2018-12-31T08:33:15.390Z,7.13
2018-12-31T08:35:46.566Z,7.18
2018-12-31T08:38:17.780Z,7.21
2018-12-31T08:40:48.679Z,7.24
2018-12-31T08:43:19.932Z,7.24
2018-12-31T08:45:50.851Z,7.27
2018-12-31T08:48:21.728Z,7.33
2018-12-31T08:50:52.617Z,7.36
2018-12-31T08:53:23.527Z,7.37
2018-12-31T08:55:54.728Z,7.36
2018-12-31T08:58:25.625Z,7.38
2018-12-31T09:00:56.607Z,7.46
2018-12-31T09:03:27.768Z,7.51
2018-12-31T09:05:58.966Z,7.52
2018-12-31T09:08:29.890Z,7.58
2018-12-31T09:11:00.793Z,7.58
2018-12-31T09:13:31.662Z,7.63
2018-12-31T09:16:02.598Z,7.70
2018-12-31T09:18:33.477Z,7.76
2018-12-31T09:21:04.384Z,7.75
2018-12-31T09:23:35.307Z,7.81
2018-12-31T09:26:06.223Z,7.86
2018-12-31T09:28:37.446Z,7.93
2018-12-31T09:31:08.414Z,8.07
2018-12-31T09:33:39.289Z,8.10
2018-12-31T09:36:10.448Z,8.14
2018-12-31T09:38:41.944Z,8.09
2018-12-31T09:41:13.434Z,8.22
2018-12-31T09:43:44.622Z,8.15
2018-12-31T09:46:15.554Z,8.23
2018-12-31T09:48:46.732Z,8.20
2018-12-31T09:51:17.613Z,8.17
2018-12-31T09:53:48.538Z,8.26
2018-12-31T09:56:19.508Z,8.33
2018-12-31T09:58:50.385Z,8.46
2018-12-31T10:01:21.333Z,8.57
2018-12-31T10:03:52.283Z,8.59
2018-12-31T10:06:23.174Z,8.55
2018-12-31T10:08:54.089Z,8.65
2018-12-31T10:11:25.057Z,8.59
2018-12-31T10:13:55.943Z,8.52
2018-12-31T10:16:27.129Z,8.61
2018-12-31T10:18:58.022Z,8.55
2018-12-31T10:21:28.946Z,8.62
2018-12-31T10:24:00.193Z,8.55
2018-12-31T10:26:31.069Z,8.60
2018-12-31T10:29:01.948Z,8.57
2018-12-31T10:31:32.868Z,8.75
2018-12-31T10:34:03.842Z,8.79
2018-12-31T10:36:34.770Z,8.79
2018-12-31T10:39:07.797Z,8.88
2018-12-31T10:41:38.966Z,8.92
2018-12-31T10:44:10.123Z,8.91
2018-12-31T10:46:41.364Z,8.89
2018-12-31T10:49:12.227Z,8.96
2018-12-31T10:51:43.103Z,8.96
2018-12-31T10:54:14.041Z,8.89
2018-12-31T10:56:45.236Z,8.84
2018-12-31T10:59:16.118Z,8.81
2018-12-31T11:01:47.048Z,8.97
2018-12-31T11:04:18.023Z,9.10
2018-12-31T11:06:49.204Z,8.97
2018-12-31T11:09:20.142Z,8.98
2018-12-31T11:11:51.013Z,9.16
2018-12-31T11:14:22.172Z,9.14
2018-12-31T11:16:53.085Z,9.09
2018-12-31T11:19:24.253Z,9.22
2018-12-31T11:21:55.450Z,9.29
2018-12-31T11:24:26.386Z,9.33
2018-12-31T11:26:57.300Z,9.37
2018-12-31T11:29:28.186Z,9.38
2018-12-31T11:31:59.475Z,9.36
2018-12-31T11:34:30.365Z,9.30
2018-12-31T11:37:01.229Z,9.27
2018-12-31T11:39:32.481Z,9.32
2018-12-31T11:42:03.359Z,9.36
2018-12-31T11:44:34.281Z,9.27
2018-12-31T11:47:05.193Z,9.30
2018-12-31T11:49:36.073Z,9.17
2018-12-31T11:52:06.998Z,9.13
2018-12-31T11:54:39.310Z,9.00
2018-12-31T11:57:10.666Z,9.01
2018-12-31T11:59:41.645Z,9.03
2018-12-31T12:02:12.519Z,9.05
2018-12-31T12:04:43.440Z,9.00
2018-12-31T12:07:14.372Z,8.92
2018-12-31T12:09:45.260Z,8.95
2018-12-31T12:12:16.163Z,8.88
2018-12-31T12:14:47.479Z,8.95
2018-12-31T12:17:18.441Z,9.09
2018-12-31T12:19:49.333Z,9.12
2018-12-31T12:22:20.554Z,9.09
2018-12-31T12:24:52.003Z,9.03
2018-12-31T12:27:22.925Z,9.05
2018-12-31T12:29:53.814Z,9.00
2018-12-31T12:32:25.665Z,8.98
2018-12-31T12:34:56.993Z,8.94
2018-12-31T12:37:27.888Z,9.06
2018-12-31T12:39:58.906Z,9.08
2018-12-31T12:42:30.208Z,9.27
2018-12-31T12:45:01.110Z,9.12
2018-12-31T12:47:32.008Z,9.03
2018-12-31T12:50:03.033Z,9.15
2018-12-31T12:52:34.029Z,9.15
2018-12-31T12:55:05.101Z,9.07
2018-12-31T12:57:36.169Z,9.18
2018-12-31T13:00:07.875Z,9.13
2018-12-31T13:02:39.135Z,9.07
2018-12-31T13:05:10.172Z,9.11
2018-12-31T13:07:41.436Z,9.09
2018-12-31T13:10:12.679Z,9.03
2018-12-31T13:12:43.917Z,9.01
2018-12-31T13:15:15.686Z,8.96
2018-12-31T13:17:47.000Z,9.04
2018-12-31T13:20:17.921Z,9.05
2018-12-31T13:22:48.931Z,8.94
2018-12-31T13:25:20.410Z,9.01
2018-12-31T13:27:51.304Z,9.05
2018-12-31T13:30:22.238Z,8.98
2018-12-31T13:32:53.247Z,8.91
2018-12-31T13:35:24.133Z,8.92
2018-12-31T13:37:55.452Z,9.07
2018-12-31T13:40:26.944Z,9.13
2018-12-31T13:42:58.125Z,9.16
2018-12-31T13:45:29.111Z,9.11
2018-12-31T13:48:00.084Z,9.07
2018-12-31T13:50:31.859Z,9.09
2018-12-31T13:53:02.826Z,9.01
2018-12-31T13:55:33.836Z,9.06
2018-12-31T13:58:05.054Z,8.91
2018-12-31T14:00:37.796Z,8.91
2018-12-31T14:03:16.880Z,8.97
2018-12-31T14:05:41.514Z,8.99
2018-12-31T14:08:12.477Z,9.00
2018-12-31T14:10:43.441Z,8.90
2018-12-31T14:13:14.342Z,8.95
2018-12-31T14:15:45.363Z,8.91
2018-12-31T14:18:16.312Z,8.96
2018-12-31T14:20:47.286Z,8.96
2018-12-31T14:23:18.215Z,8.95
2018-12-31T14:25:49.226Z,8.93
2018-12-31T14:28:20.108Z,8.91
2018-12-31T14:30:51.320Z,8.80
2018-12-31T14:33:22.606Z,8.90
2018-12-31T14:35:53.535Z,8.99
2018-12-31T14:38:24.497Z,8.94
2018-12-31T14:40:55.698Z,8.93
2018-12-31T14:43:34.557Z,8.81
2018-12-31T14:46:05.575Z,8.81
2018-12-31T14:48:36.841Z,8.80
2018-12-31T14:51:07.848Z,8.85
2018-12-31T14:53:38.815Z,8.90
2018-12-31T14:56:09.744Z,8.89
2018-12-31T14:58:40.740Z,8.94
2018-12-31T15:01:11.720Z,8.96
2018-12-31T15:03:42.724Z,8.84
2018-12-31T15:06:13.986Z,8.95
2018-12-31T15:08:44.932Z,8.96
2018-12-31T15:11:15.900Z,8.89
2018-12-31T15:13:46.867Z,8.84
2018-12-31T15:16:18.338Z,8.78
2018-12-31T15:18:49.543Z,8.91
2018-12-31T15:21:20.425Z,8.96
2018-12-31T15:23:51.393Z,8.89
2018-12-31T15:26:22.313Z,8.86
2018-12-31T15:28:53.320Z,8.93
2018-12-31T15:31:24.330Z,8.76
2018-12-31T15:33:55.321Z,8.75
2018-12-31T15:36:26.341Z,8.77
2018-12-31T15:38:57.253Z,8.75
2018-12-31T15:41:28.137Z,8.79
2018-12-31T15:43:59.077Z,8.94
2018-12-31T15:46:30.080Z,8.97
2018-12-31T15:49:01.660Z,9.01
2018-12-31T15:51:32.986Z,8.90
2018-12-31T15:54:04.179Z,8.79
2018-12-31T15:56:35.084Z,8.77
2018-12-31T15:59:06.090Z,8.87
2018-12-31T16:01:37.020Z,8.94
2018-12-31T16:04:07.955Z,8.95
2018-12-31T16:06:38.970Z,8.97
2018-12-31T16:09:09.976Z,8.96
2018-12-31T16:11:41.478Z,9.04
2018-12-31T16:14:12.387Z,8.95
2018-12-31T16:16:43.293Z,8.94
2018-12-31T16:19:14.237Z,8.96
2018-12-31T16:21:45.147Z,8.89
2018-12-31T16:24:16.404Z,8.92
2018-12-31T16:26:47.378Z,8.93
2018-12-31T16:29:18.248Z,8.96
2018-12-31T16:31:49.304Z,8.90
2018-12-31T16:34:20.245Z,8.79
2018-12-31T16:36:51.301Z,8.88
2018-12-31T16:39:22.304Z,8.85
2018-12-31T16:41:53.311Z,8.81
2018-12-31T16:44:24.506Z,8.92
2018-12-31T16:46:55.459Z,8.91
2018-12-31T16:49:26.425Z,8.89
2018-12-31T16:52:02.650Z,8.85
2018-12-31T16:54:30.329Z,8.94
2018-12-31T16:57:01.297Z,8.87
2018-12-31T16:59:32.220Z,8.85
2018-12-31T17:02:03.516Z,8.81
2018-12-31T17:04:34.440Z,8.83
2018-12-31T17:07:05.647Z,8.86
2018-12-31T17:09:36.587Z,8.78
2018-12-31T17:12:07.488Z,8.75
2018-12-31T17:14:38.685Z,8.78
2018-12-31T17:17:09.701Z,8.70
2018-12-31T17:19:40.640Z,8.67
2018-12-31T17:22:11.813Z,8.70
2018-12-31T17:24:42.859Z,8.69
2018-12-31T17:27:13.773Z,8.74
2018-12-31T17:29:45.032Z,8.76
2018-12-31T17:32:15.970Z,8.83
2018-12-31T17:34:46.884Z,8.78
2018-12-31T17:37:17.836Z,8.75
2018-12-31T17:39:48.971Z,8.78
2018-12-31T17:42:19.927Z,8.78
2018-12-31T17:44:50.812Z,8.79
2018-12-31T17:47:21.745Z,8.90
2018-12-31T17:49:52.746Z,8.83
2018-12-31T17:52:23.712Z,8.73
2018-12-31T17:54:55.021Z,8.77
2018-12-31T17:57:25.932Z,8.87
2018-12-31T17:59:56.859Z,8.83
2018-12-31T18:02:28.470Z,8.85
2018-12-31T18:04:59.420Z,8.77
2018-12-31T18:07:30.288Z,8.85
2018-12-31T18:10:01.212Z,8.84
2018-12-31T18:12:32.177Z,8.89
2018-12-31T18:15:03.114Z,8.96
2018-12-31T18:17:34.041Z,8.92
2018-12-31T18:20:05.703Z,8.94
2018-12-31T18:22:36.566Z,8.88
2018-12-31T18:25:07.874Z,8.82
2018-12-31T18:27:38.754Z,9.03
2018-12-31T18:30:11.496Z,9.00
2018-12-31T18:32:42.382Z,8.93
2018-12-31T18:35:14.009Z,9.07
2018-12-31T18:37:44.952Z,9.05
2018-12-31T18:40:15.827Z,8.98
2018-12-31T18:42:46.818Z,9.08
2018-12-31T18:45:17.745Z,8.99
2018-12-31T18:47:48.706Z,9.07
2018-12-31T18:50:19.605Z,9.03
2018-12-31T18:52:50.608Z,8.96
2018-12-31T18:55:21.579Z,8.99
2018-12-31T18:57:52.722Z,8.92
2018-12-31T19:00:23.704Z,8.92
2018-12-31T19:02:54.967Z,8.95
2018-12-31T19:05:25.843Z,8.98
2018-12-31T19:07:56.805Z,8.96
2018-12-31T19:10:27.684Z,8.94
2018-12-31T19:12:58.659Z,8.87
2018-12-31T19:15:29.621Z,8.86
2018-12-31T19:18:00.506Z,8.84
2018-12-31T19:20:31.753Z,8.92
2018-12-31T19:23:02.764Z,8.93
2018-12-31T19:25:33.785Z,8.94
2018-12-31T19:28:04.661Z,8.93
2018-12-31T19:30:35.594Z,8.96
2018-12-31T19:33:06.554Z,8.90
2018-12-31T19:35:37.758Z,8.92
2018-12-31T19:38:08.756Z,8.86
2018-12-31T19:40:39.954Z,8.99
2018-12-31T19:43:11.229Z,8.92
2018-12-31T19:45:42.153Z,8.91
2018-12-31T19:48:13.322Z,8.89
2018-12-31T19:50:44.282Z,8.94
2018-12-31T19:53:15.311Z,8.99
2018-12-31T19:55:46.283Z,8.97
2018-12-31T19:58:17.187Z,8.95
2018-12-31T20:00:48.177Z,8.95
2018-12-31T20:03:19.053Z,8.96
2018-12-31T20:05:50.012Z,8.84
2018-12-31T20:08:21.040Z,8.90
2018-12-31T20:10:51.957Z,8.80
2018-12-31T20:13:22.832Z,8.98
2018-12-31T20:15:53.759Z,8.92
2018-12-31T20:18:24.725Z,8.99
2018-12-31T20:20:55.641Z,9.01
2018-12-31T20:23:26.636Z,8.89
2018-12-31T20:25:57.585Z,8.95
2018-12-31T20:28:28.745Z,8.94
2018-12-31T20:30:59.812Z,8.89
2018-12-31T20:33:30.762Z,8.85
2018-12-31T20:36:01.654Z,8.86
2018-12-31T20:38:32.663Z,8.96
2018-12-31T20:41:03.787Z,8.97
2018-12-31T20:43:34.768Z,8.97
2018-12-31T20:46:05.706Z,8.99
2018-12-31T20:48:36.687Z,8.97
2018-12-31T20:51:08.026Z,8.93
2018-12-31T20:53:38.964Z,8.99
2018-12-31T20:56:09.909Z,9.00
2018-12-31T20:58:40.911Z,8.86
2018-12-31T21:01:11.826Z,8.87
2018-12-31T21:03:43.117Z,8.92
2018-12-31T21:06:14.294Z,8.90
2018-12-31T21:08:45.218Z,8.95
2018-12-31T21:11:16.216Z,8.90
2018-12-31T21:13:47.197Z,8.80
2018-12-31T21:16:18.092Z,8.87
2018-12-31T21:18:49.042Z,8.86
2018-12-31T21:21:20.026Z,8.90
2018-12-31T21:23:51.003Z,8.95
2018-12-31T21:26:22.188Z,8.77
2018-12-31T21:28:53.058Z,8.83
2018-12-31T21:31:26.171Z,8.78
2018-12-31T21:33:57.056Z,8.83
2018-12-31T21:36:28.317Z,8.79
2018-12-31T21:38:59.292Z,8.79
2018-12-31T21:41:30.168Z,8.73
2018-12-31T21:44:01.478Z,8.73
2018-12-31T21:46:32.375Z,8.74
2018-12-31T21:49:03.679Z,8.53
2018-12-31T21:51:34.550Z,8.69
2018-12-31T21:54:05.480Z,8.63
2018-12-31T21:56:36.481Z,8.59
2018-12-31T21:59:07.452Z,8.66
2018-12-31T22:01:38.641Z,8.64
2018-12-31T22:04:09.834Z,8.68
2018-12-31T22:06:40.740Z,8.70
2018-12-31T22:09:11.621Z,8.74
2018-12-31T22:11:42.572Z,8.78
2018-12-31T22:14:13.446Z,8.73
2018-12-31T22:16:44.733Z,8.72
2018-12-31T22:19:15.701Z,8.70
2018-12-31T22:21:47.042Z,8.62
2018-12-31T22:24:18.321Z,8.74
2018-12-31T22:26:49.305Z,8.79
2018-12-31T22:29:20.221Z,8.69
2018-12-31T22:31:51.096Z,8.70
2018-12-31T22:34:22.213Z,8.64
2018-12-31T22:36:53.091Z,8.59
2018-12-31T22:39:24.271Z,8.53
2018-12-31T22:41:55.251Z,8.50
2018-12-31T22:44:26.256Z,8.53
2018-12-31T22:46:57.247Z,8.60
2018-12-31T22:49:28.165Z,8.50
2018-12-31T22:51:59.081Z,8.53
2018-12-31T22:54:29.986Z,8.40
2018-12-31T22:57:01.213Z,8.39
2018-12-31T22:59:32.186Z,8.52
2018-12-31T23:02:03.161Z,8.41
2018-12-31T23:04:34.129Z,8.39
2018-12-31T23:07:08.604Z,8.36
2018-12-31T23:09:41.351Z,8.37
2018-12-31T23:12:13.161Z,8.38
2018-12-31T23:14:44.152Z,8.28
2018-12-31T23:17:17.558Z,8.18
2018-12-31T23:19:48.509Z,8.29
2018-12-31T23:22:19.778Z,8.24
2018-12-31T23:24:51.026Z,8.26
2018-12-31T23:27:22.023Z,8.40
2018-12-31T23:29:53.159Z,8.31
2018-12-31T23:32:24.142Z,8.25
2018-12-31T23:34:55.115Z,8.29
2018-12-31T23:37:26.027Z,8.37
2018-12-31T23:39:57.070Z,8.29
2018-12-31T23:42:27.997Z,8.30
2018-12-31T23:44:59.000Z,8.37
2018-12-31T23:47:30.219Z,8.29
2018-12-31T23:50:01.233Z,8.28
2018-12-31T23:52:32.174Z,8.28
2018-12-31T23:55:03.057Z,8.25
2018-12-31T23:57:45.327Z,8.35
